createdAt,value
2023-03-25T00:01:08.537Z,2.73
2023-03-25T00:03:37.661Z,2.70
2023-03-25T00:06:06.278Z,2.54
2023-03-25T00:08:32.996Z,2.76
2023-03-25T00:11:01.225Z,2.40
2023-03-25T00:13:27.739Z,2.42
2023-03-25T00:15:57.615Z,2.38
2023-03-25T00:18:28.605Z,2.85
2023-03-25T00:20:55.858Z,2.63
2023-03-25T00:23:22.811Z,2.89
2023-03-25T00:25:52.119Z,2.92
2023-03-25T00:28:19.081Z,2.97
2023-03-25T00:30:46.005Z,2.90
2023-03-25T00:33:13.102Z,3.02
2023-03-25T00:35:44.048Z,2.93
2023-03-25T00:38:11.405Z,2.83
2023-03-25T00:40:38.602Z,2.51
2023-03-25T00:43:05.920Z,2.81
2023-03-25T00:45:33.502Z,2.98
2023-03-25T00:48:00.496Z,2.87
2023-03-25T00:50:27.170Z,2.80
2023-03-25T00:52:54.016Z,2.78
2023-03-25T00:55:21.401Z,2.89
2023-03-25T00:57:48.024Z,2.69
2023-03-25T01:00:17.293Z,2.04
2023-03-25T01:02:45.143Z,2.03
2023-03-25T01:05:11.731Z,2.14
2023-03-25T01:07:39.569Z,1.92
2023-03-25T01:10:08.415Z,1.68
2023-03-25T01:12:34.899Z,2.21
2023-03-25T01:15:01.678Z,2.23
2023-03-25T01:17:29.848Z,2.47
2023-03-25T01:19:56.628Z,2.30
2023-03-25T01:22:23.272Z,2.48
2023-03-25T01:24:50.029Z,2.53
2023-03-25T01:27:16.610Z,2.52
2023-03-25T01:29:43.296Z,2.53
2023-03-25T01:32:10.309Z,2.20
2023-03-25T01:34:37.991Z,2.15
2023-03-25T01:37:04.443Z,2.25
2023-03-25T01:39:31.282Z,2.15
2023-03-25T01:41:57.908Z,1.95
2023-03-25T01:45:00.229Z,2.06
2023-03-25T01:47:27.536Z,1.83
2023-03-25T01:49:54.124Z,2.21
2023-03-25T01:52:24.854Z,2.33
2023-03-25T01:54:55.376Z,2.36
2023-03-25T01:57:23.686Z,2.38
2023-03-25T01:59:53.508Z,2.16
2023-03-25T02:02:21.200Z,2.30
2023-03-25T02:04:58.314Z,2.34
2023-03-25T02:07:30.602Z,2.28
2023-03-25T02:10:01.511Z,2.31
2023-03-25T02:12:29.225Z,2.32
2023-03-25T02:15:00.158Z,2.25
2023-03-25T02:17:51.193Z,2.13
2023-03-25T02:20:53.684Z,2.24
2023-03-25T02:23:41.340Z,2.13
2023-03-25T02:26:41.913Z,2.05
2023-03-25T02:29:28.604Z,1.83
2023-03-25T02:32:29.739Z,1.76
2023-03-25T02:35:24.020Z,1.94
2023-03-25T02:38:21.161Z,1.95
2023-03-25T02:40:57.942Z,2.08
2023-03-25T02:43:39.908Z,2.20
2023-03-25T02:46:11.426Z,1.94
2023-03-25T02:48:50.620Z,2.15
2023-03-25T02:51:23.845Z,2.22
2023-03-25T02:53:52.761Z,2.16
2023-03-25T02:56:22.739Z,2.20
2023-03-25T02:58:55.034Z,2.14
2023-03-25T03:01:26.203Z,2.15
2023-03-25T03:03:54.657Z,2.14
2023-03-25T03:06:23.741Z,2.01
2023-03-25T03:09:11.068Z,2.13
2023-03-25T03:11:57.948Z,2.21
2023-03-25T03:14:35.165Z,2.24
2023-03-25T03:17:27.795Z,2.27
2023-03-25T03:20:01.890Z,2.20
2023-03-25T03:22:46.216Z,2.22
2023-03-25T03:25:27.131Z,2.26
2023-03-25T03:28:01.497Z,2.31
2023-03-25T03:30:43.321Z,2.43
2023-03-25T03:33:38.285Z,2.43
2023-03-25T03:36:13.111Z,2.37
2023-03-25T03:38:47.191Z,2.53
2023-03-25T03:41:20.398Z,2.40
2023-03-25T03:43:53.402Z,2.51
2023-03-25T03:46:26.921Z,2.57
2023-03-25T03:48:56.672Z,2.68
2023-03-25T03:51:31.503Z,2.86
2023-03-25T03:54:03.343Z,2.85
2023-03-25T03:56:37.875Z,2.92
2023-03-25T03:59:12.086Z,2.96
2023-03-25T04:01:46.172Z,2.93
2023-03-25T04:04:20.809Z,2.94
2023-03-25T04:06:56.272Z,2.92
2023-03-25T04:09:54.500Z,3.00
2023-03-25T04:12:25.785Z,3.00
2023-03-25T04:14:54.762Z,3.09
2023-03-25T04:17:23.384Z,3.15
2023-03-25T04:19:52.984Z,3.25
2023-03-25T04:22:21.164Z,3.44
2023-03-25T04:24:51.146Z,3.46
2023-03-25T04:27:19.089Z,3.53
2023-03-25T04:29:47.084Z,3.60
2023-03-25T04:32:14.243Z,3.65
2023-03-25T04:34:41.426Z,3.73
2023-03-25T04:37:08.352Z,3.76
2023-03-25T04:39:34.890Z,3.80
2023-03-25T04:42:02.532Z,3.87
2023-03-25T04:44:32.840Z,3.95
2023-03-25T04:47:01.728Z,4.06
2023-03-25T04:49:28.411Z,4.11
2023-03-25T04:51:56.353Z,4.25
2023-03-25T04:54:23.594Z,4.34
2023-03-25T04:56:51.510Z,4.47
2023-03-25T04:59:19.267Z,4.59
2023-03-25T05:01:46.858Z,4.68
2023-03-25T05:04:16.677Z,4.86
2023-03-25T05:06:46.563Z,4.93
2023-03-25T05:09:16.057Z,5.04
2023-03-25T05:11:42.978Z,5.12
2023-03-25T05:14:10.364Z,5.18
2023-03-25T05:16:37.405Z,5.27
2023-03-25T05:19:05.909Z,5.42
2023-03-25T05:21:35.690Z,5.52
2023-03-25T05:24:03.876Z,5.53
2023-03-25T05:26:33.687Z,5.66
2023-03-25T05:29:05.176Z,5.71
2023-03-25T05:31:31.987Z,5.80
2023-03-25T05:33:58.587Z,5.97
2023-03-25T05:36:25.214Z,6.30
2023-03-25T05:38:53.872Z,6.57
2023-03-25T05:41:22.186Z,6.77
2023-03-25T05:43:50.323Z,6.80
2023-03-25T05:46:18.480Z,6.88
2023-03-25T05:48:45.951Z,6.93
2023-03-25T05:51:15.904Z,6.94
2023-03-25T05:53:44.258Z,7.08
2023-03-25T05:56:11.306Z,7.01
2023-03-25T05:58:38.917Z,7.17
2023-03-25T06:01:06.101Z,7.31
2023-03-25T06:03:33.678Z,7.37
2023-03-25T06:06:01.154Z,7.54
2023-03-25T06:08:29.285Z,7.60
2023-03-25T06:10:57.860Z,7.62
2023-03-25T06:13:24.857Z,7.64
2023-03-25T06:15:55.472Z,7.63
2023-03-25T06:18:24.223Z,7.74
2023-03-25T06:20:56.262Z,7.77
2023-03-25T06:23:24.335Z,7.60
2023-03-25T06:25:51.053Z,7.77
2023-03-25T06:28:18.604Z,7.81
2023-03-25T06:30:46.630Z,7.78
2023-03-25T06:33:14.534Z,7.81
2023-03-25T06:36:01.186Z,7.76
2023-03-25T06:38:29.385Z,7.85
2023-03-25T06:40:57.716Z,7.98
2023-03-25T06:43:24.753Z,8.06
2023-03-25T06:45:52.563Z,8.38
2023-03-25T06:48:20.166Z,8.47
2023-03-25T06:50:46.924Z,8.61
2023-03-25T06:53:13.497Z,8.76
2023-03-25T06:55:40.797Z,8.93
2023-03-25T06:58:07.594Z,9.21
2023-03-25T07:00:34.206Z,9.35
2023-03-25T07:03:01.159Z,9.54
2023-03-25T07:05:28.251Z,9.42
2023-03-25T07:07:54.869Z,9.54
2023-03-25T07:10:21.344Z,9.34
2023-03-25T07:12:48.278Z,9.38
2023-03-25T07:15:14.891Z,9.45
2023-03-25T07:17:43.155Z,9.60
2023-03-25T07:20:12.142Z,9.76
2023-03-25T07:22:40.083Z,9.52
2023-03-25T07:25:06.936Z,9.66
2023-03-25T07:27:33.665Z,9.82
2023-03-25T07:30:01.158Z,9.86
2023-03-25T07:32:29.672Z,9.81
2023-03-25T07:34:56.948Z,9.78
2023-03-25T07:37:23.430Z,9.73
2023-03-25T07:39:50.064Z,9.50
2023-03-25T07:42:17.009Z,9.33
2023-03-25T07:44:45.896Z,9.23
2023-03-25T07:47:12.339Z,9.35
2023-03-25T07:49:40.403Z,9.03
2023-03-25T07:52:07.152Z,9.07
2023-03-25T07:54:33.625Z,9.22
2023-03-25T07:57:00.383Z,9.35
2023-03-25T07:59:28.829Z,9.41
2023-03-25T08:01:55.893Z,9.66
2023-03-25T08:04:22.829Z,9.60
2023-03-25T08:06:49.337Z,9.68
2023-03-25T08:09:15.818Z,9.72
2023-03-25T08:11:42.705Z,9.71
2023-03-25T08:14:09.163Z,9.84
2023-03-25T08:16:35.673Z,9.57
2023-03-25T08:19:02.551Z,9.60
2023-03-25T08:21:29.588Z,9.57
2023-03-25T08:24:02.607Z,9.56
2023-03-25T08:26:30.650Z,9.65
2023-03-25T08:28:58.040Z,9.81
2023-03-25T08:31:25.973Z,9.84
2023-03-25T08:33:52.791Z,9.85
2023-03-25T08:36:22.467Z,9.81
2023-03-25T08:38:49.799Z,9.77
2023-03-25T08:41:17.312Z,9.80
2023-03-25T08:43:45.137Z,10.05
2023-03-25T08:46:12.273Z,10.01
2023-03-25T08:48:39.703Z,10.05
2023-03-25T08:51:06.699Z,10.06
2023-03-25T08:53:33.251Z,10.12
2023-03-25T08:56:00.093Z,10.06
2023-03-25T08:58:26.852Z,9.98
2023-03-25T09:00:55.058Z,9.97
2023-03-25T09:03:22.965Z,10.02
2023-03-25T09:05:49.897Z,9.94
2023-03-25T09:08:16.741Z,9.92
2023-03-25T09:10:43.511Z,10.01
2023-03-25T09:13:10.466Z,9.96
2023-03-25T09:15:37.033Z,9.84
2023-03-25T09:18:05.174Z,9.72
2023-03-25T09:20:33.080Z,9.68
2023-03-25T09:22:59.965Z,9.59
2023-03-25T09:25:27.771Z,9.57
2023-03-25T09:27:54.280Z,9.48
2023-03-25T09:30:20.760Z,9.42
2023-03-25T09:32:47.560Z,9.41
2023-03-25T09:35:14.024Z,9.31
2023-03-25T09:37:40.539Z,9.30
2023-03-25T09:40:08.570Z,9.34
2023-03-25T09:42:58.954Z,9.32
2023-03-25T09:45:46.969Z,9.21
2023-03-25T09:48:37.664Z,9.08
2023-03-25T09:51:14.925Z,9.03
2023-03-25T09:53:58.503Z,9.05
2023-03-25T09:56:29.240Z,8.99
2023-03-25T09:59:03.429Z,8.96
2023-03-25T10:01:57.352Z,9.01
2023-03-25T10:04:47.213Z,8.97
2023-03-25T10:07:41.429Z,8.97
2023-03-25T10:10:26.714Z,8.96
2023-03-25T10:13:09.106Z,9.05
2023-03-25T10:15:49.557Z,9.11
2023-03-25T10:18:56.000Z,9.08
2023-03-25T10:21:49.664Z,9.01
2023-03-25T10:24:26.750Z,9.03
2023-03-25T10:27:01.975Z,9.06
2023-03-25T10:29:38.044Z,9.16
2023-03-25T10:32:13.021Z,9.17
2023-03-25T10:34:49.246Z,9.19
2023-03-25T10:37:35.037Z,9.18
2023-03-25T10:40:32.994Z,9.15
2023-03-25T10:43:27.589Z,9.17
2023-03-25T10:46:00.548Z,9.20
2023-03-25T10:48:29.204Z,9.17
2023-03-25T10:51:03.984Z,9.12
2023-03-25T10:53:30.902Z,9.08
2023-03-25T10:56:06.260Z,9.09
2023-03-25T10:58:36.646Z,9.03
2023-03-25T11:01:12.818Z,8.99
2023-03-25T11:03:41.352Z,8.93
2023-03-25T11:06:23.617Z,8.88
2023-03-25T11:09:11.684Z,8.83
2023-03-25T11:11:38.271Z,8.77
2023-03-25T11:14:05.212Z,8.76
2023-03-25T11:16:35.085Z,8.68
2023-03-25T11:19:03.202Z,8.67
2023-03-25T11:21:35.714Z,8.59
2023-03-25T11:24:05.783Z,8.54
2023-03-25T11:26:41.360Z,8.50
2023-03-25T11:29:14.124Z,8.52
2023-03-25T11:31:41.438Z,8.39
2023-03-25T11:34:24.612Z,8.53
2023-03-25T11:36:59.108Z,8.57
2023-03-25T11:39:34.673Z,8.70
2023-03-25T11:42:28.207Z,8.83
2023-03-25T11:44:58.548Z,8.88
2023-03-25T11:47:30.715Z,8.91
2023-03-25T11:49:57.573Z,8.91
2023-03-25T11:52:27.073Z,8.96
2023-03-25T11:54:55.617Z,8.89
2023-03-25T11:57:27.162Z,9.02
2023-03-25T12:00:11.233Z,8.95
2023-03-25T12:02:40.513Z,9.06
2023-03-25T12:05:14.280Z,9.08
2023-03-25T12:07:49.488Z,9.05
2023-03-25T12:10:54.304Z,9.05
2023-03-25T12:13:56.612Z,9.06
2023-03-25T12:16:51.657Z,9.13
2023-03-25T12:19:57.972Z,9.11
2023-03-25T12:22:58.312Z,9.27
2023-03-25T12:25:53.272Z,9.39
2023-03-25T12:28:44.231Z,9.45
2023-03-25T12:31:45.892Z,9.52
2023-03-25T12:34:39.831Z,9.65
2023-03-25T12:37:34.294Z,9.79
2023-03-25T12:40:30.781Z,9.80
2023-03-25T12:43:09.483Z,9.65
2023-03-25T12:45:50.441Z,9.61
2023-03-25T12:48:37.135Z,9.57
2023-03-25T12:51:22.053Z,9.50
2023-03-25T12:54:12.051Z,9.54
2023-03-25T12:57:03.919Z,9.49
2023-03-25T12:59:53.643Z,9.55
2023-03-25T13:02:51.931Z,9.38
2023-03-25T13:05:45.594Z,9.27
2023-03-25T13:08:21.777Z,9.27
2023-03-25T13:10:56.004Z,9.19
2023-03-25T13:13:26.037Z,9.22
2023-03-25T13:16:14.529Z,9.17
2023-03-25T13:18:51.660Z,9.25
2023-03-25T13:21:24.038Z,9.18
2023-03-25T13:24:04.214Z,9.28
2023-03-25T13:26:32.074Z,9.29
2023-03-25T13:29:01.077Z,9.34
2023-03-25T13:31:34.913Z,9.35
2023-03-25T13:34:30.197Z,9.28
2023-03-25T13:37:06.321Z,9.26
2023-03-25T13:40:11.952Z,9.21
2023-03-25T13:43:06.545Z,9.22
2023-03-25T13:45:48.791Z,9.08
2023-03-25T13:48:23.088Z,9.04
2023-03-25T13:50:51.178Z,9.00
2023-03-25T13:53:29.392Z,8.95
2023-03-25T13:56:35.792Z,8.93
2023-03-25T13:59:42.114Z,8.83
2023-03-25T14:02:47.216Z,8.79
2023-03-25T14:05:44.648Z,8.75
2023-03-25T14:08:39.519Z,8.74
2023-03-25T14:11:28.953Z,8.71
2023-03-25T14:14:02.776Z,8.72
2023-03-25T14:16:35.757Z,8.64
2023-03-25T14:19:06.600Z,8.72
2023-03-25T14:21:47.146Z,8.68
2023-03-25T14:24:21.996Z,8.60
2023-03-25T14:26:53.028Z,8.64
2023-03-25T14:29:41.740Z,8.53
2023-03-25T14:32:32.664Z,8.64
2023-03-25T14:35:40.649Z,8.56
2023-03-25T14:38:42.892Z,8.57
2023-03-25T14:41:09.743Z,8.48
2023-03-25T14:43:40.355Z,8.50
2023-03-25T14:46:18.804Z,8.34
2023-03-25T14:48:51.939Z,8.38
2023-03-25T14:51:40.973Z,8.37
2023-03-25T14:54:29.827Z,8.33
2023-03-25T14:57:06.058Z,8.25
2023-03-25T14:59:42.305Z,8.22
2023-03-25T15:02:21.902Z,8.18
2023-03-25T15:04:59.981Z,8.18
2023-03-25T15:07:58.484Z,8.14
2023-03-25T15:10:44.281Z,8.02
2023-03-25T15:13:23.586Z,8.07
2023-03-25T15:16:26.426Z,8.02
2023-03-25T15:19:00.422Z,7.95
2023-03-25T15:21:32.029Z,7.97
2023-03-25T15:24:21.829Z,7.99
2023-03-25T15:26:49.614Z,7.95
2023-03-25T15:29:46.214Z,7.99
2023-03-25T15:32:42.264Z,7.88
2023-03-25T15:35:44.565Z,7.89
2023-03-25T15:38:42.775Z,7.91
2023-03-25T15:41:34.000Z,7.91
2023-03-25T15:44:35.195Z,7.87
2023-03-25T15:47:20.095Z,7.89
2023-03-25T15:50:18.794Z,7.89
2023-03-25T15:53:01.660Z,7.87
2023-03-25T15:55:51.006Z,7.87
2023-03-25T15:58:30.916Z,7.88
2023-03-25T16:01:12.174Z,7.85
2023-03-25T16:03:39.471Z,7.81
2023-03-25T16:06:07.805Z,7.78
2023-03-25T16:08:39.343Z,7.70
2023-03-25T16:11:23.744Z,7.71
2023-03-25T16:14:16.376Z,7.67
2023-03-25T16:16:50.255Z,7.66
2023-03-25T16:19:22.277Z,7.68
2023-03-25T16:21:51.551Z,7.66
2023-03-25T16:24:23.490Z,7.67
2023-03-25T16:26:50.611Z,7.63
2023-03-25T16:29:22.670Z,7.63
2023-03-25T16:31:53.470Z,7.59
2023-03-25T16:34:20.797Z,7.63
2023-03-25T16:36:49.756Z,7.61
2023-03-25T16:39:17.370Z,7.62
2023-03-25T16:41:49.496Z,7.57
2023-03-25T16:44:21.378Z,7.55
2023-03-25T16:46:51.211Z,7.57
2023-03-25T16:49:28.410Z,7.59
2023-03-25T16:51:57.050Z,7.56
2023-03-25T16:54:51.250Z,7.56
2023-03-25T16:57:24.479Z,7.53
2023-03-25T16:59:53.434Z,7.51
2023-03-25T17:02:30.906Z,7.48
2023-03-25T17:05:18.297Z,7.44
2023-03-25T17:07:47.692Z,7.43
2023-03-25T17:10:25.657Z,7.42
2023-03-25T17:12:57.943Z,7.38
2023-03-25T17:15:26.596Z,7.37
2023-03-25T17:18:00.425Z,7.37
2023-03-25T17:20:36.102Z,7.31
2023-03-25T17:23:18.416Z,7.34
2023-03-25T17:26:06.398Z,7.33
2023-03-25T17:28:39.365Z,7.34
2023-03-25T17:31:35.789Z,7.38
2023-03-25T17:34:07.989Z,7.35
2023-03-25T17:36:37.362Z,7.39
2023-03-25T17:39:12.672Z,7.41
2023-03-25T17:41:39.814Z,7.40
2023-03-25T17:44:06.969Z,7.44
2023-03-25T17:46:34.542Z,7.38
2023-03-25T17:49:01.433Z,7.32
2023-03-25T17:51:30.573Z,7.16
2023-03-25T17:53:57.109Z,7.00
2023-03-25T17:56:26.941Z,6.97
2023-03-25T17:59:03.414Z,7.06
2023-03-25T18:01:32.003Z,6.90
2023-03-25T18:03:58.786Z,6.90
2023-03-25T18:06:27.616Z,6.95
2023-03-25T18:08:55.121Z,6.88
2023-03-25T18:11:22.379Z,7.07
2023-03-25T18:13:49.194Z,6.86
2023-03-25T18:16:19.888Z,7.11
2023-03-25T18:18:47.136Z,7.40
2023-03-25T18:21:15.770Z,7.10
2023-03-25T18:23:46.979Z,6.88
2023-03-25T18:26:16.626Z,7.04
2023-03-25T18:28:44.064Z,6.83
2023-03-25T18:31:16.070Z,6.91
2023-03-25T18:33:45.527Z,6.95
2023-03-25T18:36:14.055Z,6.88
2023-03-25T18:38:41.128Z,6.90
2023-03-25T18:41:10.504Z,7.00
2023-03-25T18:43:37.110Z,6.78
2023-03-25T18:46:04.707Z,7.11
2023-03-25T18:48:31.994Z,6.82
2023-03-25T18:50:59.493Z,6.73
2023-03-25T18:53:28.395Z,6.59
2023-03-25T18:55:59.254Z,6.59
2023-03-25T18:58:30.461Z,6.75
2023-03-25T19:00:58.343Z,6.75
2023-03-25T19:03:40.741Z,6.80
2023-03-25T19:06:12.380Z,6.71
2023-03-25T19:08:40.314Z,6.77
2023-03-25T19:11:19.104Z,6.81
2023-03-25T19:13:48.347Z,6.85
2023-03-25T19:16:14.995Z,6.89
2023-03-25T19:18:41.642Z,6.83
2023-03-25T19:21:09.889Z,6.91
2023-03-25T19:23:37.067Z,6.92
2023-03-25T19:26:03.727Z,6.94
2023-03-25T19:28:30.485Z,6.95
2023-03-25T19:31:00.434Z,6.94
2023-03-25T19:33:30.217Z,6.96
2023-03-25T19:36:00.439Z,6.99
2023-03-25T19:38:28.051Z,7.02
2023-03-25T19:41:06.016Z,7.00
2023-03-25T19:43:33.127Z,7.00
2023-03-25T19:46:00.292Z,7.02
2023-03-25T19:48:29.088Z,6.96
2023-03-25T19:50:56.699Z,6.95
2023-03-25T19:53:25.477Z,6.98
2023-03-25T19:55:52.836Z,6.94
2023-03-25T19:58:21.991Z,6.88
2023-03-25T20:00:48.742Z,6.70
2023-03-25T20:03:15.777Z,6.57
2023-03-25T20:05:42.316Z,6.55
2023-03-25T20:08:09.027Z,6.55
2023-03-25T20:10:38.787Z,6.41
2023-03-25T20:13:05.476Z,6.37
2023-03-25T20:15:32.437Z,6.32
2023-03-25T20:17:59.656Z,6.27
2023-03-25T20:20:26.358Z,6.27
2023-03-25T20:22:53.336Z,6.35
2023-03-25T20:25:20.712Z,6.32
2023-03-25T20:27:47.243Z,6.18
2023-03-25T20:30:17.413Z,6.11
2023-03-25T20:32:47.523Z,6.06
2023-03-25T20:35:16.051Z,5.86
2023-03-25T20:37:44.304Z,5.77
2023-03-25T20:40:14.854Z,5.68
2023-03-25T20:42:43.223Z,5.60
2023-03-25T20:45:13.016Z,5.54
2023-03-25T20:47:40.834Z,5.80
